Time,TemperatureF,DewpointF,PressureIn,WindDirection,WindDirectionDegrees,WindSpeedMPH,WindSpeedGustMPH,Humidity,HourlyPrecipIn,Conditions,Clouds,dailyrainin,SoftwareType,DateUTC
2013-11-27 00:01:00,27.1,22.6,29.94,NNW,337,6.5,7.8,83,0.00,,,0.00,WUHU21623XXSP,2013-11-27 05:01:00,
2013-11-27 00:06:00,27.1,22.6,29.94,NNW,337,4.3,6.5,83,0.00,,,0.00,WUHU21623XXSP,2013-11-27 05:06:00,
2013-11-27 00:11:00,27.0,22.7,29.94,NE,45,1.8,8.3,84,0.00,,,0.00,WUHU21623XXSP,2013-11-27 05:11:00,
2013-11-27 00:16:00,27.0,22.7,29.94,SW,225,1.8,8.3,84,0.00,,,0.00,WUHU21623XXSP,2013-11-27 05:16:00,
2013-11-27 00:21:00,26.8,22.5,29.94,SSW,202,0.0,7.4,84,0.00,,,0.00,WUHU21623XXSP,2013-11-27 05:21:00,
2013-11-27 00:26:00,26.6,22.6,29.94,North,0,0.0,6.9,85,0.00,,,0.00,WUHU21623XXSP,2013-11-27 05:26:00,
2013-11-27 00:31:00,26.4,22.5,29.93,North,0,6.9,6.9,85,0.00,,,0.00,WUHU21623XXSP,2013-11-27 05:31:00,
2013-11-27 00:36:00,26.4,22.5,29.93,North,0,0.0,6.9,85,0.00,,,0.00,WUHU21623XXSP,2013-11-27 05:36:00,
2013-11-27 00:41:00,26.4,22.7,29.93,NNW,337,2.0,2.0,86,0.00,,,0.00,WUHU21623XXSP,2013-11-27 05:41:00,
2013-11-27 00:46:00,26.4,22.7,29.93,NNW,337,0.0,2.0,86,0.00,,,0.00,WUHU21623XXSP,2013-11-27 05:46:00,
2013-11-27 00:51:00,26.4,22.7,29.93,North,0,6.9,6.9,86,0.00,,,0.00,WUHU21623XXSP,2013-11-27 05:51:00,
2013-11-27 00:56:00,26.4,22.7,29.93,NNW,337,5.4,6.9,86,0.00,,,0.00,WUHU21623XXSP,2013-11-27 05:56:00,
2013-11-27 01:01:00,26.2,22.6,29.93,North,0,0.0,6.9,86,0.00,,,0.00,WUHU21623XXSP,2013-11-27 06:01:00,
2013-11-27 01:06:00,26.2,22.7,29.93,North,0,0.0,0.0,86,0.00,,,0.00,WUHU21623XXSP,2013-11-27 06:06:00,
2013-11-27 01:11:00,26.2,22.6,29.93,NNW,337,0.0,0.0,86,0.00,,,0.00,WUHU21623XXSP,2013-11-27 06:11:00,
2013-11-27 01:16:00,26.2,22.6,29.92,NNW,337,0.0,0.0,86,0.00,,,0.00,WUHU21623XXSP,2013-11-27 06:16:00,
2013-11-27 01:21:00,26.2,22.6,29.92,NNW,337,0.0,0.0,86,0.00,,,0.00,WUHU21623XXSP,2013-11-27 06:21:00,
2013-11-27 01:26:00,26.2,22.6,29.92,NNW,337,0.0,0.0,86,0.00,,,0.00,WUHU21623XXSP,2013-11-27 06:26:00,
2013-11-27 01:31:00,26.2,22.9,29.92,North,0,14.5,14.5,87,0.00,,,0.00,WUHU21623XXSP,2013-11-27 06:31:00,
2013-11-27 01:36:00,26.2,22.9,29.92,SSW,202,0.0,14.5,87,0.00,,,0.00,WUHU21623XXSP,2013-11-27 06:36:00,
2013-11-27 01:42:00,26.1,22.7,29.92,North,0,5.6,5.6,86,0.00,,,0.00,WUHU21623XXSP,2013-11-27 06:42:00,
2013-11-27 01:47:00,25.9,22.2,29.93,NNW,337,7.4,7.4,86,0.00,,,0.00,WUHU21623XXSP,2013-11-27 06:47:00,
2013-11-27 01:52:00,25.9,22.2,29.93,NNW,337,0.0,7.4,86,0.00,,,0.00,WUHU21623XXSP,2013-11-27 06:52:00,
2013-11-27 01:57:00,25.7,22.1,29.93,North,0,7.8,7.8,86,0.00,,,0.00,WUHU21623XXSP,2013-11-27 06:57:00,
2013-11-27 02:02:00,25.7,22.1,29.92,NNW,337,7.2,7.8,86,0.00,,,0.00,WUHU21623XXSP,2013-11-27 07:02:00,
2013-11-27 02:07:00,25.7,22.1,29.92,North,0,1.8,7.2,86,0.00,,,0.00,WUHU21623XXSP,2013-11-27 07:07:00,
2013-11-27 02:12:00,25.5,21.9,29.93,NNW,337,15.4,15.4,86,0.00,,,0.00,WUHU21623XXSP,2013-11-27 07:12:00,
2013-11-27 02:17:00,25.2,21.7,29.93,NNW,337,12.1,15.4,86,0.00,,,0.00,WUHU21623XXSP,2013-11-27 07:17:00,
2013-11-27 02:22:00,25.0,21.4,29.93,North,0,2.9,12.1,86,0.00,,,0.00,WUHU21623XXSP,2013-11-27 07:22:00,
2013-11-27 02:27:00,24.6,21.0,29.93,North,0,6.5,7.6,86,0.00,,,0.00,WUHU21623XXSP,2013-11-27 07:27:00,
2013-11-27 02:32:00,24.6,21.0,29.94,North,0,0.0,6.9,86,0.00,,,0.00,WUHU21623XXSP,2013-11-27 07:32:00,
2013-11-27 02:37:00,24.4,20.8,29.94,NNE,22,0.0,15.7,86,0.00,,,0.00,WUHU21623XXSP,2013-11-27 07:37:00,
2013-11-27 02:42:00,24.4,20.8,29.94,SSW,202,0.0,15.7,86,0.00,,,0.00,WUHU21623XXSP,2013-11-27 07:42:00,
2013-11-27 02:47:00,24.1,20.5,29.94,North,0,1.1,5.1,86,0.00,,,0.00,WUHU21623XXSP,2013-11-27 07:47:00,
2013-11-27 02:52:00,24.1,20.5,29.95,NNW,337,8.1,8.1,86,0.00,,,0.00,WUHU21623XXSP,2013-11-27 07:52:00,
2013-11-27 02:57:00,23.9,20.3,29.95,NNW,337,6.3,8.1,86,0.00,,,0.00,WUHU21623XXSP,2013-11-27 07:57:00,
2013-11-27 03:02:00,23.7,20.1,29.95,North,0,13.2,13.2,86,0.00,,,0.00,WUHU21623XXSP,2013-11-27 08:02:00,
2013-11-27 03:07:00,23.5,20.1,29.95,SSW,202,2.9,13.2,85,0.00,,,0.00,WUHU21623XXSP,2013-11-27 08:07:00,
2013-11-27 03:12:00,23.4,19.7,29.95,North,0,0.0,2.9,85,0.00,,,0.00,WUHU21623XXSP,2013-11-27 08:12:00,
2013-11-27 03:17:00,23.2,19.0,29.95,NNW,337,7.2,8.7,84,0.00,,,0.00,WUHU21623XXSP,2013-11-27 08:17:00,
2013-11-27 03:22:00,23.0,19.0,29.95,SSW,202,3.8,8.7,83,0.00,,,0.00,WUHU21623XXSP,2013-11-27 08:22:00,
2013-11-27 03:27:00,22.8,18.4,29.95,North,0,8.1,13.4,83,0.00,,,0.00,WUHU21623XXSP,2013-11-27 08:27:00,
2013-11-27 03:32:00,22.8,18.4,29.95,NNW,337,4.7,13.4,83,0.00,,,0.00,WUHU21623XXSP,2013-11-27 08:32:00,
2013-11-27 03:37:00,22.8,18.4,29.95,NNW,337,6.9,8.5,83,0.00,,,0.00,WUHU21623XXSP,2013-11-27 08:37:00,
2013-11-27 03:42:00,22.8,18.1,29.95,North,0,0.0,7.6,82,0.00,,,0.00,WUHU21623XXSP,2013-11-27 08:42:00,
2013-11-27 03:47:00,22.8,18.1,29.95,NNW,337,11.2,11.2,82,0.00,,,0.00,WUHU21623XXSP,2013-11-27 08:47:00,
2013-11-27 03:52:00,22.6,18.0,29.95,NNW,337,3.8,11.2,82,0.00,,,0.00,WUHU21623XXSP,2013-11-27 08:52:00,
2013-11-27 03:57:00,22.6,18.0,29.95,NNE,22,0.0,5.6,82,0.00,,,0.00,WUHU21623XXSP,2013-11-27 08:57:00,
2013-11-27 04:02:00,22.6,18.0,29.95,North,0,9.2,9.2,82,0.00,,,0.00,WUHU21623XXSP,2013-11-27 09:02:00,
2013-11-27 04:07:00,22.6,17.7,29.96,North,0,3.4,9.2,81,0.00,,,0.00,WUHU21623XXSP,2013-11-27 09:07:00,
2013-11-27 04:12:00,22.5,17.5,29.95,SSW,202,12.8,12.8,81,0.00,,,0.00,WUHU21623XXSP,2013-11-27 09:12:00,
2013-11-27 04:17:00,22.5,17.5,29.96,SSW,202,6.5,12.8,81,0.00,,,0.00,WUHU21623XXSP,2013-11-27 09:17:00,
2013-11-27 04:22:00,22.3,17.1,29.95,SSW,202,0.0,8.1,80,0.00,,,0.00,WUHU21623XXSP,2013-11-27 09:22:00,
2013-11-27 04:27:00,22.3,17.1,29.96,NNW,337,11.0,11.0,80,0.00,,,0.00,WUHU21623XXSP,2013-11-27 09:27:00,
2013-11-27 04:32:00,22.3,16.8,29.96,North,0,5.8,11.0,79,0.00,,,0.00,WUHU21623XXSP,2013-11-27 09:32:00,
2013-11-27 04:37:00,22.3,16.8,29.96,NNW,337,3.8,5.8,79,0.00,,,0.00,WUHU21623XXSP,2013-11-27 09:37:00,
2013-11-27 04:42:00,22.1,16.6,29.96,SSW,202,2.7,5.4,79,0.00,,,0.00,WUHU21623XXSP,2013-11-27 09:42:00,
2013-11-27 04:47:00,22.1,16.6,29.95,North,0,8.3,8.3,79,0.00,,,0.00,WUHU21623XXSP,2013-11-27 09:47:00,
2013-11-27 04:52:00,22.1,16.6,29.96,North,0,2.7,8.3,79,0.00,,,0.00,WUHU21623XXSP,2013-11-27 09:52:00,
2013-11-27 04:57:00,21.9,16.4,29.96,SSW,202,2.5,2.7,79,0.00,,,0.00,WUHU21623XXSP,2013-11-27 09:57:00,
2013-11-27 05:02:00,21.9,16.4,29.96,North,0,0.0,6.3,79,0.00,,,0.00,WUHU21623XXSP,2013-11-27 10:02:00,
2013-11-27 05:07:00,21.9,16.4,29.96,NNW,337,4.3,6.3,79,0.00,,,0.00,WUHU21623XXSP,2013-11-27 10:07:00,
2013-11-27 05:12:00,21.9,16.4,29.96,SSW,202,2.5,6.3,79,0.00,,,0.00,WUHU21623XXSP,2013-11-27 10:12:00,
2013-11-27 05:17:00,21.7,16.2,29.96,NNW,337,7.8,7.8,79,0.00,,,0.00,WUHU21623XXSP,2013-11-27 10:17:00,
2013-11-27 05:22:00,21.6,15.7,29.96,North,0,6.5,7.8,78,0.00,,,0.00,WUHU21623XXSP,2013-11-27 10:22:00,
2013-11-27 05:27:00,21.4,15.9,29.97,North,0,0.0,7.4,79,0.00,,,0.00,WUHU21623XXSP,2013-11-27 10:27:00,
2013-11-27 05:32:00,21.4,15.9,29.96,NNW,337,6.5,7.4,79,0.00,,,0.00,WUHU21623XXSP,2013-11-27 10:32:00,
2013-11-27 05:37:00,21.4,15.9,29.96,SSW,202,6.5,6.5,79,0.00,,,0.00,WUHU21623XXSP,2013-11-27 10:37:00,
2013-11-27 05:42:00,21.4,15.9,29.96,North,0,0.0,6.5,79,0.00,,,0.00,WUHU21623XXSP,2013-11-27 10:42:00,
2013-11-27 05:47:00,21.4,15.9,29.96,North,0,0.0,0.0,79,0.00,,,0.00,WUHU21623XXSP,2013-11-27 10:47:00,
2013-11-27 05:52:00,20.8,15.3,29.96,NNW,337,6.7,6.7,79,0.00,,,0.00,WUHU21623XXSP,2013-11-27 10:52:00,
2013-11-27 05:57:00,20.8,15.3,29.96,SSW,202,0.0,6.7,79,0.00,,,0.00,WUHU21623XXSP,2013-11-27 10:57:00,
2013-11-27 06:02:00,20.5,15.1,29.96,North,0,6.7,6.7,79,0.00,,,0.00,WUHU21623XXSP,2013-11-27 11:02:00,
2013-11-27 06:07:00,20.5,15.0,29.96,SSW,202,5.8,6.7,79,0.00,,,0.00,WUHU21623XXSP,2013-11-27 11:07:00,
2013-11-27 06:12:00,20.1,14.6,29.96,North,0,7.4,7.4,79,0.00,,,0.00,WUHU21623XXSP,2013-11-27 11:12:00,
2013-11-27 06:17:00,19.9,14.4,29.96,NNW,337,8.3,9.2,79,0.00,,,0.00,WUHU21623XXSP,2013-11-27 11:17:00,
2013-11-27 06:22:00,19.8,14.4,29.96,NNW,337,8.3,9.2,79,0.00,,,0.00,WUHU21623XXSP,2013-11-27 11:22:00,
2013-11-27 06:27:00,19.6,14.1,29.97,SW,225,0.0,8.3,79,0.00,,,0.00,WUHU21623XXSP,2013-11-27 11:27:00,
2013-11-27 06:32:00,19.6,14.1,29.97,SSW,202,5.8,5.8,79,0.00,,,0.00,WUHU21623XXSP,2013-11-27 11:32:00,
2013-11-27 06:37:00,19.2,13.9,29.97,SSW,202,4.7,5.8,79,0.00,,,0.00,WUHU21623XXSP,2013-11-27 11:37:00,
2013-11-27 06:42:00,19.2,13.7,29.97,North,0,3.1,4.7,79,0.00,,,0.00,WUHU21623XXSP,2013-11-27 11:42:00,
2013-11-27 06:47:00,18.9,13.3,29.97,North,0,3.8,4.7,79,0.00,,,0.00,WUHU21623XXSP,2013-11-27 11:47:00,
2013-11-27 06:52:00,18.7,13.2,29.97,North,0,0.0,3.8,79,0.00,,,0.00,WUHU21623XXSP,2013-11-27 11:52:00,
2013-11-27 06:57:00,18.5,13.0,29.98,SSW,202,0.0,0.0,79,0.00,,,0.00,WUHU21623XXSP,2013-11-27 11:57:00,
2013-11-27 07:02:00,18.3,13.0,29.98,SW,225,0.0,0.0,79,0.00,,,0.00,WUHU21623XXSP,2013-11-27 12:02:00,
2013-11-27 07:07:00,18.3,12.8,29.98,North,0,0.0,0.0,79,0.00,,,0.00,WUHU21623XXSP,2013-11-27 12:07:00,
2013-11-27 07:12:00,18.0,12.7,29.98,North,0,0.0,4.0,80,0.00,,,0.00,WUHU21623XXSP,2013-11-27 12:12:00,
2013-11-27 07:17:00,17.8,12.6,29.98,North,0,0.0,9.4,80,0.00,,,0.00,WUHU21623XXSP,2013-11-27 12:17:00,
2013-11-27 07:22:00,17.8,12.6,29.98,North,0,0.0,9.4,80,0.00,,,0.00,WUHU21623XXSP,2013-11-27 12:22:00,
2013-11-27 07:27:00,17.4,12.2,29.99,North,0,8.5,8.5,80,0.00,,,0.00,WUHU21623XXSP,2013-11-27 12:27:00,
2013-11-27 07:32:00,17.4,12.2,29.99,North,0,0.0,8.5,80,0.00,,,0.00,WUHU21623XXSP,2013-11-27 12:32:00,
2013-11-27 07:37:00,17.2,12.1,29.99,SSW,202,0.0,8.5,80,0.00,,,0.00,WUHU21623XXSP,2013-11-27 12:37:00,
2013-11-27 07:42:00,17.2,12.1,29.99,NNW,337,0.0,0.0,80,0.00,,,0.00,WUHU21623XXSP,2013-11-27 12:42:00,
2013-11-27 07:47:00,16.9,11.7,29.99,North,0,3.1,3.1,80,0.00,,,0.00,WUHU21623XXSP,2013-11-27 12:47:00,
2013-11-27 07:52:00,16.9,11.7,29.99,SW,225,0.0,3.1,80,0.00,,,0.00,WUHU21623XXSP,2013-11-27 12:52:00,
2013-11-27 07:57:00,16.7,11.6,30.00,North,0,0.0,0.0,80,0.00,,,0.00,WUHU21623XXSP,2013-11-27 12:57:00,
2013-11-27 08:02:00,16.7,11.6,29.99,NNW,337,0.0,0.0,80,0.00,,,0.00,WUHU21623XXSP,2013-11-27 13:02:00,
2013-11-27 08:07:00,16.5,11.4,29.99,SSW,202,0.0,0.0,80,0.00,,,0.00,WUHU21623XXSP,2013-11-27 13:07:00,
2013-11-27 08:12:00,16.3,11.2,29.99,North,0,0.0,0.0,80,0.00,,,0.00,WUHU21623XXSP,2013-11-27 13:12:00,
2013-11-27 08:17:00,16.3,11.2,29.99,North,0,0.0,2.0,80,0.00,,,0.00,WUHU21623XXSP,2013-11-27 13:17:00,
2013-11-27 08:22:00,16.3,11.2,29.99,SSW,202,0.0,5.8,80,0.00,,,0.00,WUHU21623XXSP,2013-11-27 13:22:00,
2013-11-27 08:27:00,16.3,11.2,29.99,North,0,0.0,5.8,80,0.00,,,0.00,WUHU21623XXSP,2013-11-27 13:27:00,
2013-11-27 08:32:00,16.3,11.2,30.00,NNW,337,0.0,0.0,80,0.00,,,0.00,WUHU21623XXSP,2013-11-27 13:32:00,
2013-11-27 08:37:00,16.3,11.2,30.00,North,0,0.0,0.0,80,0.00,,,0.00,WUHU21623XXSP,2013-11-27 13:37:00,
2013-11-27 08:42:00,16.5,11.7,30.00,SSW,202,5.4,5.6,81,0.00,,,0.00,WUHU21623XXSP,2013-11-27 13:42:00,
2013-11-27 08:47:00,16.5,11.7,30.00,SW,225,0.0,5.6,81,0.00,,,0.00,WUHU21623XXSP,2013-11-27 13:47:00,
2013-11-27 08:52:00,16.7,11.8,30.00,North,0,7.4,7.4,81,0.00,,,0.00,WUHU21623XXSP,2013-11-27 13:52:00,
2013-11-27 08:57:00,16.9,12.0,30.00,NNW,337,0.0,7.4,81,0.00,,,0.00,WUHU21623XXSP,2013-11-27 13:57:00,
2013-11-27 09:02:00,17.2,12.3,30.00,NNW,337,4.3,4.3,81,0.00,,,0.00,WUHU21623XXSP,2013-11-27 14:02:00,
2013-11-27 09:07:00,17.4,12.5,30.00,SSW,202,0.0,4.3,81,0.00,,,0.00,WUHU21623XXSP,2013-11-27 14:07:00,
2013-11-27 09:12:00,17.8,12.5,30.00,North,0,6.5,6.5,81,0.00,,,0.00,WUHU21623XXSP,2013-11-27 14:12:00,
2013-11-27 09:17:00,18.3,13.4,29.99,North,0,3.8,6.5,81,0.00,,,0.00,WUHU21623XXSP,2013-11-27 14:17:00,
2013-11-27 09:22:00,19.0,13.7,30.00,NNW,337,7.4,7.4,81,0.00,,,0.00,WUHU21623XXSP,2013-11-27 14:22:00,
2013-11-27 09:27:00,19.9,15.0,30.00,SSW,202,0.0,7.4,81,0.00,,,0.00,WUHU21623XXSP,2013-11-27 14:27:00,
2013-11-27 09:32:00,21.0,16.1,29.99,SSW,202,0.0,4.3,81,0.00,,,0.00,WUHU21623XXSP,2013-11-27 14:32:00,
2013-11-27 09:37:00,21.9,16.7,29.99,North,0,4.9,4.9,80,0.00,,,0.00,WUHU21623XXSP,2013-11-27 14:37:00,
2013-11-27 09:42:00,22.8,17.3,29.99,North,0,0.0,5.4,79,0.00,,,0.00,WUHU21623XXSP,2013-11-27 14:42:00,
2013-11-27 09:47:00,23.5,17.4,29.99,SSW,202,6.7,6.7,77,0.00,,,0.00,WUHU21623XXSP,2013-11-27 14:47:00,
2013-11-27 09:52:00,23.9,17.4,29.99,SSW,202,5.4,6.7,76,0.00,,,0.00,WUHU21623XXSP,2013-11-27 14:52:00,
2013-11-27 09:57:00,24.4,17.6,29.99,NNW,337,6.3,6.7,75,0.00,,,0.00,WUHU21623XXSP,2013-11-27 14:57:00,
2013-11-27 10:02:00,24.6,17.1,29.99,North,0,6.9,6.9,73,0.00,,,0.00,WUHU21623XXSP,2013-11-27 15:02:00,
2013-11-27 10:07:00,25.0,17.1,29.98,NNW,337,7.6,7.6,72,0.00,,,0.00,WUHU21623XXSP,2013-11-27 15:07:00,
2013-11-27 10:12:00,25.0,17.5,29.98,SSW,202,0.0,7.6,73,0.00,,,0.00,WUHU21623XXSP,2013-11-27 15:12:00,
2013-11-27 10:17:00,25.0,16.8,29.98,NNW,337,1.3,1.3,71,0.00,,,0.00,WUHU21623XXSP,2013-11-27 15:17:00,
2013-11-27 10:22:00,25.0,16.8,29.98,NNW,337,0.0,1.3,71,0.00,,,0.00,WUHU21623XXSP,2013-11-27 15:22:00,
2013-11-27 10:27:00,25.0,16.5,29.98,NNW,337,0.0,12.5,70,0.00,,,0.00,WUHU21623XXSP,2013-11-27 15:27:00,
2013-11-27 10:32:00,25.0,16.5,29.98,SSW,202,5.1,12.5,70,0.00,,,0.00,WUHU21623XXSP,2013-11-27 15:32:00,
2013-11-27 10:37:00,25.0,16.2,29.98,SSW,202,6.3,6.3,69,0.00,,,0.00,WUHU21623XXSP,2013-11-27 15:37:00,
2013-11-27 10:42:00,24.6,15.8,29.98,NNW,337,2.5,6.3,69,0.00,,,0.00,WUHU21623XXSP,2013-11-27 15:42:00,
2013-11-27 10:47:00,24.6,15.8,29.98,NNW,337,2.5,3.8,70,0.00,,,0.00,WUHU21623XXSP,2013-11-27 15:47:00,
2013-11-27 10:52:00,24.6,15.8,29.97,SSW,202,7.8,7.8,69,0.00,,,0.00,WUHU21623XXSP,2013-11-27 15:52:00,
2013-11-27 10:57:00,24.4,15.7,29.97,SSW,202,6.9,7.8,69,0.00,,,0.00,WUHU21623XXSP,2013-11-27 15:57:00,
2013-11-27 11:02:00,24.3,15.5,29.97,SSW,202,0.2,7.8,69,0.00,,,0.00,WUHU21623XXSP,2013-11-27 16:02:00,
2013-11-27 11:07:00,24.1,15.3,29.97,North,0,0.0,16.1,69,0.00,,,0.00,WUHU21623XXSP,2013-11-27 16:07:00,
2013-11-27 11:12:00,24.4,15.3,29.97,NNW,337,13.0,16.1,69,0.00,,,0.00,WUHU21623XXSP,2013-11-27 16:12:00,
2013-11-27 11:17:00,24.4,15.7,29.97,North,0,3.8,13.0,69,0.00,,,0.00,WUHU21623XXSP,2013-11-27 16:17:00,
2013-11-27 11:22:00,24.4,15.3,29.97,NNW,337,8.1,8.7,68,0.00,,,0.00,WUHU21623XXSP,2013-11-27 16:22:00,
2013-11-27 11:27:00,24.6,15.8,29.96,NNW,337,6.9,8.1,69,0.00,,,0.00,WUHU21623XXSP,2013-11-27 16:27:00,
2013-11-27 11:32:00,24.6,15.8,29.97,NNW,337,5.6,6.9,69,0.00,,,0.00,WUHU21623XXSP,2013-11-27 16:32:00,
2013-11-27 11:37:00,24.6,15.8,29.96,NNW,337,6.7,8.5,69,0.00,,,0.00,WUHU21623XXSP,2013-11-27 16:37:00,
2013-11-27 11:42:00,24.4,15.0,29.96,NNW,337,4.5,11.2,67,0.00,,,0.00,WUHU21623XXSP,2013-11-27 16:42:00,
2013-11-27 11:47:00,24.4,15.0,29.96,North,0,0.0,17.4,67,0.00,,,0.00,WUHU21623XXSP,2013-11-27 16:47:00,
2013-11-27 11:52:00,24.6,15.1,29.96,North,0,6.9,17.4,67,0.00,,,0.00,WUHU21623XXSP,2013-11-27 16:52:00,
2013-11-27 11:57:00,24.4,15.0,29.96,North,0,11.9,11.9,67,0.00,,,0.00,WUHU21623XXSP,2013-11-27 16:57:00,
2013-11-27 12:02:00,24.4,15.0,29.96,NNW,337,5.4,11.9,67,0.00,,,0.00,WUHU21623XXSP,2013-11-27 17:02:00,
2013-11-27 12:07:00,24.6,14.8,29.95,SSW,202,0.0,8.1,66,0.00,,,0.00,WUHU21623XXSP,2013-11-27 17:07:00,
2013-11-27 12:12:00,24.8,15.0,29.95,NNW,337,7.4,7.6,66,0.00,,,0.00,WUHU21623XXSP,2013-11-27 17:12:00,
2013-11-27 12:17:00,24.6,15.1,29.95,SSW,202,0.0,13.4,67,0.00,,,0.00,WUHU21623XXSP,2013-11-27 17:17:00,
2013-11-27 12:22:00,25.0,15.1,29.96,NNW,337,18.8,18.8,66,0.00,,,0.00,WUHU21623XXSP,2013-11-27 17:22:00,
2013-11-27 12:27:00,24.6,14.8,29.96,North,0,7.8,18.8,66,0.00,,,0.00,WUHU21623XXSP,2013-11-27 17:27:00,
2013-11-27 12:32:00,24.6,14.8,29.95,North,0,3.6,12.8,66,0.00,,,0.00,WUHU21623XXSP,2013-11-27 17:32:00,
2013-11-27 12:37:00,25.0,14.8,29.95,NNW,337,5.6,16.6,65,0.00,,,0.00,WUHU21623XXSP,2013-11-27 17:37:00,
2013-11-27 12:42:00,25.2,15.3,29.96,SSW,202,0.0,16.6,66,0.00,,,0.00,WUHU21623XXSP,2013-11-27 17:42:00,
2013-11-27 12:47:00,25.3,15.5,29.95,North,0,0.0,6.9,66,0.00,,,0.00,WUHU21623XXSP,2013-11-27 17:47:00,
2013-11-27 12:52:00,25.5,15.3,29.95,NNW,337,8.9,11.2,65,0.00,,,0.00,WUHU21623XXSP,2013-11-27 17:52:00,
2013-11-27 12:57:00,25.3,15.1,29.95,North,0,6.0,11.2,65,0.00,,,0.00,WUHU21623XXSP,2013-11-27 17:57:00,
2013-11-27 13:02:00,25.2,15.0,29.96,North,0,11.6,11.6,65,0.00,,,0.00,WUHU21623XXSP,2013-11-27 18:02:00,
2013-11-27 13:07:00,25.0,14.8,29.96,SSW,202,2.2,11.6,65,0.00,,,0.00,WUHU21623XXSP,2013-11-27 18:07:00,
2013-11-27 13:12:00,25.0,14.8,29.96,SSW,202,6.0,19.0,65,0.00,,,0.00,WUHU21623XXSP,2013-11-27 18:12:00,
2013-11-27 13:17:00,24.6,14.4,29.96,North,0,9.2,19.0,65,0.00,,,0.00,WUHU21623XXSP,2013-11-27 18:17:00,
2013-11-27 13:22:00,24.6,14.8,29.96,North,0,4.5,9.2,66,0.00,,,0.00,WUHU21623XXSP,2013-11-27 18:22:00,
2013-11-27 13:27:00,25.0,14.8,29.96,North,0,0.0,8.3,65,0.00,,,0.00,WUHU21623XXSP,2013-11-27 18:27:00,
2013-11-27 13:32:00,24.6,14.8,29.96,SSW,202,0.0,6.3,66,0.00,,,0.00,WUHU21623XXSP,2013-11-27 18:32:00,
2013-11-27 13:37:00,25.0,14.8,29.96,NNW,337,6.9,6.9,65,0.00,,,0.00,WUHU21623XXSP,2013-11-27 18:37:00,
2013-11-27 13:42:00,24.6,14.8,29.96,NNW,337,13.6,13.6,66,0.00,,,0.00,WUHU21623XXSP,2013-11-27 18:42:00,
2013-11-27 13:47:00,25.0,14.8,29.96,SSW,202,7.6,13.6,65,0.00,,,0.00,WUHU21623XXSP,2013-11-27 18:47:00,
2013-11-27 13:52:00,25.2,15.0,29.96,SSW,202,8.7,9.8,65,0.00,,,0.00,WUHU21623XXSP,2013-11-27 18:52:00,
2013-11-27 13:56:00,25.2,14.6,29.96,SSW,202,0.0,8.7,64,0.00,,,0.00,WUHU21623XXSP,2013-11-27 18:56:00,
2013-11-27 14:01:00,25.0,14.4,29.97,NNW,337,6.5,13.0,64,0.00,,,0.00,WUHU21623XXSP,2013-11-27 19:01:00,
2013-11-27 14:06:00,24.8,14.3,29.96,North,0,6.3,13.0,64,0.00,,,0.00,WUHU21623XXSP,2013-11-27 19:06:00,
2013-11-27 14:11:00,25.0,14.4,29.97,NNW,337,7.8,12.3,64,0.00,,,0.00,WUHU21623XXSP,2013-11-27 19:11:00,
2013-11-27 14:16:00,25.0,14.4,29.97,North,0,6.7,12.3,64,0.00,,,0.00,WUHU21623XXSP,2013-11-27 19:16:00,
2013-11-27 14:21:00,25.2,14.3,29.97,NNW,337,0.0,7.8,63,0.00,,,0.00,WUHU21623XXSP,2013-11-27 19:21:00,
2013-11-27 14:26:00,25.5,14.6,29.97,NNW,337,3.8,3.8,63,0.00,,,0.00,WUHU21623XXSP,2013-11-27 19:26:00,
2013-11-27 14:31:00,25.3,14.1,29.97,North,0,0.0,6.7,62,0.00,,,0.00,WUHU21623XXSP,2013-11-27 19:31:00,
2013-11-27 14:36:00,25.2,13.9,29.98,NNW,337,11.0,11.0,62,0.00,,,0.00,WUHU21623XXSP,2013-11-27 19:36:00,
2013-11-27 14:41:00,25.0,13.8,29.97,SSW,202,0.0,11.0,62,0.00,,,0.00,WUHU21623XXSP,2013-11-27 19:41:00,
2013-11-27 14:46:00,24.6,13.1,29.98,North,0,0.0,0.0,61,0.00,,,0.00,WUHU21623XXSP,2013-11-27 19:46:00,
2013-11-27 14:51:00,24.6,13.1,29.98,North,0,8.3,8.3,61,0.00,,,0.00,WUHU21623XXSP,2013-11-27 19:51:00,
2013-11-27 14:56:00,24.4,12.7,29.98,North,0,5.6,8.3,61,0.00,,,0.00,WUHU21623XXSP,2013-11-27 19:56:00,
2013-11-27 15:01:00,24.6,13.4,29.98,NNW,337,0.0,6.5,62,0.00,,,0.00,WUHU21623XXSP,2013-11-27 20:01:00,
2013-11-27 15:06:00,24.6,13.4,29.99,NNW,337,11.2,11.2,62,0.00,,,0.00,WUHU21623XXSP,2013-11-27 20:06:00,
2013-11-27 15:11:00,24.6,13.4,29.99,NNE,22,2.7,11.2,62,0.00,,,0.00,WUHU21623XXSP,2013-11-27 20:11:00,
2013-11-27 15:16:00,24.6,13.1,29.99,NNW,337,7.2,7.4,61,0.00,,,0.00,WUHU21623XXSP,2013-11-27 20:16:00,
2013-11-27 15:21:00,24.6,13.4,29.99,NNW,337,6.5,7.2,62,0.00,,,0.00,WUHU21623XXSP,2013-11-27 20:21:00,
2013-11-27 15:26:00,24.6,13.4,29.99,NNW,337,5.1,7.6,62,0.00,,,0.00,WUHU21623XXSP,2013-11-27 20:26:00,
2013-11-27 15:31:00,24.4,12.9,30.00,NNW,337,10.1,10.1,61,0.00,,,0.00,WUHU21623XXSP,2013-11-27 20:31:00,
2013-11-27 15:36:00,24.4,12.9,30.00,NNW,337,6.5,10.1,61,0.00,,,0.00,WUHU21623XXSP,2013-11-27 20:36:00,
2013-11-27 15:41:00,24.4,12.6,30.00,North,0,0.0,8.1,60,0.00,,,0.00,WUHU21623XXSP,2013-11-27 20:41:00,
2013-11-27 15:46:00,24.6,12.7,30.00,NNW,337,4.7,4.7,60,0.00,,,0.00,WUHU21623XXSP,2013-11-27 20:46:00,
2013-11-27 15:51:00,24.6,12.7,30.01,SSW,202,0.0,9.6,60,0.00,,,0.00,WUHU21623XXSP,2013-11-27 20:51:00,
2013-11-27 15:56:00,24.6,12.7,30.01,NNW,337,0.0,9.6,60,0.00,,,0.00,WUHU21623XXSP,2013-11-27 20:56:00,
2013-11-27 16:01:00,24.6,12.7,30.01,North,0,8.7,8.7,60,0.00,,,0.00,WUHU21623XXSP,2013-11-27 21:01:00,
2013-11-27 16:06:00,25.0,12.7,30.01,NNW,337,0.0,8.7,59,0.00,,,0.00,WUHU21623XXSP,2013-11-27 21:06:00,
2013-11-27 16:11:00,25.0,12.7,30.02,North,0,3.8,8.7,59,0.00,,,0.00,WUHU21623XXSP,2013-11-27 21:11:00,
2013-11-27 16:16:00,25.0,12.7,30.02,North,0,3.8,3.8,59,0.00,,,0.00,WUHU21623XXSP,2013-11-27 21:16:00,
2013-11-27 16:21:00,24.8,12.3,30.02,NNW,337,3.6,3.8,57,0.00,,,0.00,WUHU21623XXSP,2013-11-27 21:21:00,
2013-11-27 16:26:00,24.6,11.5,30.03,NNW,337,9.4,9.4,57,0.00,,,0.00,WUHU21623XXSP,2013-11-27 21:26:00,
2013-11-27 16:31:00,24.1,11.3,30.03,North,0,3.8,9.4,57,0.00,,,0.00,WUHU21623XXSP,2013-11-27 21:31:00,
2013-11-27 16:36:00,23.9,10.8,30.04,North,0,0.0,6.7,57,0.00,,,0.00,WUHU21623XXSP,2013-11-27 21:36:00,
2013-11-27 16:41:00,23.7,10.6,30.04,SSW,202,0.0,6.7,58,0.00,,,0.00,WUHU21623XXSP,2013-11-27 21:41:00,
2013-11-27 16:46:00,23.4,11.1,30.04,North,0,0.0,0.0,59,0.00,,,0.00,WUHU21623XXSP,2013-11-27 21:46:00,
2013-11-27 16:51:00,23.2,10.9,30.04,SSW,202,0.0,0.0,59,0.00,,,0.00,WUHU21623XXSP,2013-11-27 21:51:00,
2013-11-27 16:59:00,22.8,10.5,30.04,NNW,337,4.0,4.0,59,0.00,,,0.00,WUHU21623XXSP,2013-11-27 21:59:00,
2013-11-27 17:04:00,22.8,10.5,30.04,NNW,337,0.0,4.0,59,0.00,,,0.00,WUHU21623XXSP,2013-11-27 22:04:00,
2013-11-27 17:09:00,22.8,11.0,30.04,North,0,0.0,0.0,60,0.00,,,0.00,WUHU21623XXSP,2013-11-27 22:09:00,
2013-11-27 17:14:00,22.8,11.0,30.04,NNW,337,0.0,0.0,60,0.00,,,0.00,WUHU21623XXSP,2013-11-27 22:14:00,
2013-11-27 17:19:00,22.8,11.0,30.05,North,0,2.9,2.9,60,0.00,,,0.00,WUHU21623XXSP,2013-11-27 22:19:00,
2013-11-27 17:24:00,22.6,10.8,30.05,North,0,0.0,5.1,60,0.00,,,0.00,WUHU21623XXSP,2013-11-27 22:24:00,
2013-11-27 17:29:00,22.6,11.1,30.06,North,0,0.0,5.1,61,0.00,,,0.00,WUHU21623XXSP,2013-11-27 22:29:00,
2013-11-27 17:35:00,22.6,11.1,30.06,North,0,2.0,2.0,61,0.00,,,0.00,WUHU21623XXSP,2013-11-27 22:35:00,
2013-11-27 17:40:00,22.6,11.1,30.06,North,0,0.0,7.6,61,0.00,,,0.00,WUHU21623XXSP,2013-11-27 22:40:00,
2013-11-27 17:45:00,22.6,11.1,30.06,North,0,7.2,7.6,61,0.00,,,0.00,WUHU21623XXSP,2013-11-27 22:45:00,
2013-11-27 17:50:00,22.6,11.1,30.07,NNW,337,0.0,8.1,61,0.00,,,0.00,WUHU21623XXSP,2013-11-27 22:50:00,
2013-11-27 17:55:00,22.8,11.3,30.07,North,0,6.9,8.1,61,0.00,,,0.00,WUHU21623XXSP,2013-11-27 22:55:00,
2013-11-27 18:00:00,22.8,11.0,30.07,SSW,202,2.7,6.9,60,0.00,,,0.00,WUHU21623XXSP,2013-11-27 23:00:00,
2013-11-27 18:05:00,22.8,11.3,30.07,SSW,202,2.7,6.9,61,0.00,,,0.00,WUHU21623XXSP,2013-11-27 23:05:00,
2013-11-27 18:10:00,22.6,11.1,30.08,North,0,7.4,7.4,61,0.00,,,0.00,WUHU21623XXSP,2013-11-27 23:10:00,
2013-11-27 18:15:00,22.5,11.0,30.08,NNW,337,0.0,7.4,61,0.00,,,0.00,WUHU21623XXSP,2013-11-27 23:15:00,
2013-11-27 18:20:00,22.3,10.8,30.08,SSW,202,0.0,6.5,61,0.00,,,0.00,WUHU21623XXSP,2013-11-27 23:20:00,
2013-11-27 18:25:00,22.1,10.7,30.08,SSW,202,0.0,0.0,61,0.00,,,0.00,WUHU21623XXSP,2013-11-27 23:25:00,
2013-11-27 18:30:00,21.9,10.5,30.08,North,0,0.0,0.0,61,0.00,,,0.00,WUHU21623XXSP,2013-11-27 23:30:00,
2013-11-27 18:35:00,21.9,10.8,30.08,NNW,337,0.0,0.0,62,0.00,,,0.00,WUHU21623XXSP,2013-11-27 23:35:00,
2013-11-27 18:40:00,21.6,10.5,30.09,SSW,202,3.6,3.6,62,0.00,,,0.00,WUHU21623XXSP,2013-11-27 23:40:00,
2013-11-27 18:45:00,21.4,10.3,30.09,NNW,337,0.0,3.6,62,0.00,,,0.00,WUHU21623XXSP,2013-11-27 23:45:00,
2013-11-27 18:50:00,21.4,10.3,30.09,North,0,0.0,0.0,62,0.00,,,0.00,WUHU21623XXSP,2013-11-27 23:50:00,
2013-11-27 18:55:00,21.4,10.7,30.09,NNW,337,2.9,4.7,63,0.00,,,0.00,WUHU21623XXSP,2013-11-27 23:55:00,
2013-11-27 19:00:00,21.4,10.7,30.09,North,0,0.0,4.7,63,0.00,,,0.00,WUHU21623XXSP,2013-11-28 00:00:00,
2013-11-27 19:05:00,21.0,10.3,30.10,NNE,22,8.3,8.3,63,0.00,,,0.00,WUHU21623XXSP,2013-11-28 00:05:00,
2013-11-27 19:10:00,21.0,10.3,30.10,North,0,0.0,8.3,63,0.00,,,0.00,WUHU21623XXSP,2013-11-28 00:10:00,
2013-11-27 19:15:00,20.8,10.2,30.10,NNW,337,0.0,0.0,63,0.00,,,0.00,WUHU21623XXSP,2013-11-28 00:15:00,
2013-11-27 19:20:00,20.8,10.5,30.10,NNW,337,3.4,4.7,64,0.00,,,0.00,WUHU21623XXSP,2013-11-28 00:20:00,
2013-11-27 19:25:00,20.5,10.1,30.11,North,0,0.0,4.7,64,0.00,,,0.00,WUHU21623XXSP,2013-11-28 00:25:00,
2013-11-27 19:30:00,20.5,10.1,30.11,NNW,337,3.8,3.8,64,0.00,,,0.00,WUHU21623XXSP,2013-11-28 00:30:00,
2013-11-27 19:35:00,20.3,10.0,30.11,North,0,0.0,3.8,64,0.00,,,0.00,WUHU21623XXSP,2013-11-28 00:35:00,
2013-11-27 19:40:00,20.1,10.1,30.11,North,0,0.0,0.7,65,0.00,,,0.00,WUHU21623XXSP,2013-11-28 00:40:00,
2013-11-27 19:45:00,19.9,9.9,30.11,NNW,337,3.1,6.7,65,0.00,,,0.00,WUHU21623XXSP,2013-11-28 00:45:00,
2013-11-27 19:50:00,19.9,9.9,30.11,NNW,337,5.4,6.7,65,0.00,,,0.00,WUHU21623XXSP,2013-11-28 00:50:00,
2013-11-27 19:55:00,19.8,9.8,30.11,North,0,0.0,5.4,65,0.00,,,0.00,WUHU21623XXSP,2013-11-28 00:55:00,
2013-11-27 20:00:00,19.6,9.6,30.11,North,0,0.0,0.0,65,0.00,,,0.00,WUHU21623XXSP,2013-11-28 01:00:00,
2013-11-27 20:05:00,19.6,9.6,30.11,North,0,0.0,0.0,65,0.00,,,0.00,WUHU21623XXSP,2013-11-28 01:05:00,
2013-11-27 20:10:00,19.4,9.4,30.11,NNW,337,0.0,0.0,65,0.00,,,0.00,WUHU21623XXSP,2013-11-28 01:10:00,
2013-11-27 20:15:00,19.2,9.2,30.11,North,0,0.0,0.0,65,0.00,,,0.00,WUHU21623XXSP,2013-11-28 01:15:00,
2013-11-27 20:20:00,19.0,9.2,30.11,North,0,0.0,0.0,65,0.00,,,0.00,WUHU21623XXSP,2013-11-28 01:20:00,
2013-11-27 20:25:00,19.0,9.4,30.11,NNW,337,0.0,0.0,66,0.00,,,0.00,WUHU21623XXSP,2013-11-28 01:25:00,
2013-11-27 20:30:00,18.9,9.3,30.11,NNW,337,0.0,0.0,66,0.00,,,0.00,WUHU21623XXSP,2013-11-28 01:30:00,
2013-11-27 20:35:00,18.7,9.1,30.11,NNW,337,8.9,8.9,66,0.00,,,0.00,WUHU21623XXSP,2013-11-28 01:35:00,
2013-11-27 20:40:00,18.7,9.1,30.11,North,0,5.4,8.9,66,0.00,,,0.00,WUHU21623XXSP,2013-11-28 01:40:00,
2013-11-27 20:45:00,18.5,8.9,30.11,North,0,0.0,8.9,66,0.00,,,0.00,WUHU21623XXSP,2013-11-28 01:45:00,
2013-11-27 20:50:00,18.5,8.9,30.11,SSW,202,0.0,7.6,66,0.00,,,0.00,WUHU21623XXSP,2013-11-28 01:50:00,
2013-11-27 20:55:00,18.5,8.9,30.11,SSW,202,5.4,5.4,66,0.00,,,0.00,WUHU21623XXSP,2013-11-28 01:55:00,
2013-11-27 21:00:00,18.5,9.3,30.12,NNW,337,0.0,5.4,66,0.00,,,0.00,WUHU21623XXSP,2013-11-28 02:00:00,
2013-11-27 21:05:00,18.3,9.1,30.12,NNW,337,0.0,0.0,67,0.00,,,0.00,WUHU21623XXSP,2013-11-28 02:05:00,
2013-11-27 21:10:00,18.3,9.1,30.12,NNW,337,0.0,0.0,67,0.00,,,0.00,WUHU21623XXSP,2013-11-28 02:10:00,
2013-11-27 21:15:00,18.1,9.1,30.12,SSW,202,0.0,0.0,67,0.00,,,0.00,WUHU21623XXSP,2013-11-28 02:15:00,
2013-11-27 21:20:00,18.1,9.0,30.13,North,0,3.6,3.6,67,0.00,,,0.00,WUHU21623XXSP,2013-11-28 02:20:00,
2013-11-27 21:25:00,18.0,8.8,30.12,North,0,0.0,3.6,67,0.00,,,0.00,WUHU21623XXSP,2013-11-28 02:25:00,
2013-11-27 21:30:00,17.8,8.6,30.13,NNW,337,1.6,6.9,67,0.00,,,0.00,WUHU21623XXSP,2013-11-28 02:30:00,
2013-11-27 21:35:00,17.8,9.0,30.13,NNW,337,0.0,6.9,68,0.00,,,0.00,WUHU21623XXSP,2013-11-28 02:35:00,
2013-11-27 21:40:00,17.8,9.0,30.14,North,0,0.0,5.6,68,0.00,,,0.00,WUHU21623XXSP,2013-11-28 02:40:00,
2013-11-27 21:45:00,17.8,9.0,30.14,North,0,0.0,0.0,68,0.00,,,0.00,WUHU21623XXSP,2013-11-28 02:45:00,
2013-11-27 21:50:00,17.4,8.6,30.14,North,0,0.0,0.0,68,0.00,,,0.00,WUHU21623XXSP,2013-11-28 02:50:00,
2013-11-27 21:55:00,17.4,8.6,30.14,NNW,337,0.0,0.0,68,0.00,,,0.00,WUHU21623XXSP,2013-11-28 02:55:00,
2013-11-27 22:00:00,17.4,8.6,30.14,NNW,337,0.0,0.0,68,0.00,,,0.00,WUHU21623XXSP,2013-11-28 03:00:00,
2013-11-27 22:05:00,17.4,8.6,30.14,NNW,337,0.0,0.0,68,0.00,,,0.00,WUHU21623XXSP,2013-11-28 03:05:00,
2013-11-27 22:10:00,17.4,8.6,30.14,NNW,337,0.0,0.0,68,0.00,,,0.00,WUHU21623XXSP,2013-11-28 03:10:00,
2013-11-27 22:15:00,17.2,8.5,30.14,SSW,202,0.0,0.0,68,0.00,,,0.00,WUHU21623XXSP,2013-11-28 03:15:00,
2013-11-27 22:20:00,17.2,8.8,30.15,SSW,202,0.0,0.0,69,0.00,,,0.00,WUHU21623XXSP,2013-11-28 03:20:00,
2013-11-27 22:25:00,17.1,8.6,30.15,North,0,0.0,0.0,69,0.00,,,0.00,WUHU21623XXSP,2013-11-28 03:25:00,
2013-11-27 22:30:00,16.9,8.4,30.14,North,0,0.0,0.0,69,0.00,,,0.00,WUHU21623XXSP,2013-11-28 03:30:00,
2013-11-27 22:35:00,16.9,8.4,30.15,North,0,0.0,0.0,69,0.00,,,0.00,WUHU21623XXSP,2013-11-28 03:35:00,
2013-11-27 22:40:00,16.9,8.4,30.15,North,0,0.0,0.0,69,0.00,,,0.00,WUHU21623XXSP,2013-11-28 03:40:00,
2013-11-27 22:45:00,16.9,8.4,30.15,SSW,202,0.0,0.0,69,0.00,,,0.00,WUHU21623XXSP,2013-11-28 03:45:00,
2013-11-27 22:50:00,16.7,8.3,30.15,SSW,202,0.0,0.0,69,0.00,,,0.00,WUHU21623XXSP,2013-11-28 03:50:00,
2013-11-27 22:55:00,16.5,8.3,30.15,SSW,202,0.0,0.0,70,0.00,,,0.00,WUHU21623XXSP,2013-11-28 03:55:00,
2013-11-27 23:00:00,16.7,8.6,30.16,NNW,337,0.0,0.0,70,0.00,,,0.00,WUHU21623XXSP,2013-11-28 04:00:00,
2013-11-27 23:05:00,16.5,8.4,30.16,North,0,0.0,0.0,70,0.00,,,0.00,WUHU21623XXSP,2013-11-28 04:05:00,
2013-11-27 23:10:00,16.5,8.4,30.16,North,0,0.0,0.0,70,0.00,,,0.00,WUHU21623XXSP,2013-11-28 04:10:00,
2013-11-27 23:15:00,16.3,8.2,30.16,SW,225,0.0,0.0,70,0.00,,,0.00,WUHU21623XXSP,2013-11-28 04:15:00,
2013-11-27 23:20:00,16.3,8.5,30.16,SW,225,0.0,0.0,71,0.00,,,0.00,WUHU21623XXSP,2013-11-28 04:20:00,
2013-11-27 23:25:00,16.3,8.5,30.16,SW,225,0.0,0.0,71,0.00,,,0.00,WUHU21623XXSP,2013-11-28 04:25:00,
2013-11-27 23:30:00,16.3,8.5,30.16,SW,225,0.0,0.0,71,0.00,,,0.00,WUHU21623XXSP,2013-11-28 04:30:00,
2013-11-27 23:35:00,16.3,8.5,30.16,SSW,202,0.0,0.0,71,0.00,,,0.00,WUHU21623XXSP,2013-11-28 04:35:00,
2013-11-27 23:40:00,16.3,8.5,30.16,SSW,202,0.0,0.0,71,0.00,,,0.00,WUHU21623XXSP,2013-11-28 04:40:00,
2013-11-27 23:45:00,16.3,8.5,30.17,SSW,202,0.0,0.0,71,0.00,,,0.00,WUHU21623XXSP,2013-11-28 04:45:00,
2013-11-27 23:50:00,16.3,8.5,30.17,SSW,202,0.0,0.0,71,0.00,,,0.00,WUHU21623XXSP,2013-11-28 04:50:00,
2013-11-27 23:55:00,16.3,8.8,30.16,SSW,202,0.0,0.0,72,0.00,,,0.00,WUHU21623XXSP,2013-11-28 04:55:00,